Time;durP1;ratioP1;P1;durP2;ratioP2;P2;SDS_P1;SDS_P2;PMS_P1;PMS_P2;Temp;Humidity;BMP_temperature;BMP_pressure;BME280_temperature;BME280_humidity;BME280_pressure;Samples;Min_cycle;Max_cycle;Signal;HPM_P1;HPM_P2
2022/03/18 00:02:24;;;;;;;106.00;63.25;;;;;;;10.40;100.00;101017.38;5028303;28;20469;-78
2022/03/18 00:04:50;;;;;;;115.93;64.63;;;;;;;10.40;100.00;101012.13;5028475;28;20375;-76
2022/03/18 00:07:18;;;;;;;104.05;62.00;;;;;;;10.40;100.00;101014.75;5029015;28;20041;-75
2022/03/18 00:09:44;;;;;;;100.18;60.20;;;;;;;10.40;100.00;101022.66;5018617;28;20390;-78
2022/03/18 00:12:11;;;;;;;107.18;62.90;;;;;;;10.39;100.00;101020.97;5028405;28;20037;-77
2022/03/18 00:14:40;;;;;;;101.45;60.85;;;;;;;10.37;100.00;101017.63;5028205;28;20074;-76
2022/03/18 00:17:11;;;;;;;108.68;62.60;;;;;;;10.38;100.00;101019.28;5028402;28;20049;-75
2022/03/18 00:19:38;;;;;;;108.65;64.70;;;;;;;10.35;100.00;101016.88;5028435;28;20104;-76
2022/03/18 00:22:05;;;;;;;110.43;60.97;;;;;;;10.37;100.00;101018.44;5028483;28;20034;-75
2022/03/18 00:24:32;;;;;;;106.57;60.13;;;;;;;10.38;100.00;101014.84;5028341;28;20030;-76
2022/03/18 00:26:59;;;;;;;110.13;63.67;;;;;;;10.38;100.00;101012.22;5028348;28;20037;-76
2022/03/18 00:29:25;;;;;;;110.40;64.80;;;;;;;10.37;100.00;101017.63;5024640;28;20450;-77
2022/03/18 00:31:52;;;;;;;107.97;62.33;;;;;;;10.38;100.00;101019.28;5027976;28;20057;-76
2022/03/18 00:34:17;;;;;;;113.25;66.20;;;;;;;10.37;100.00;101017.63;5028433;28;20041;-77
2022/03/18 00:36:43;;;;;;;100.85;59.78;;;;;;;10.35;100.00;101019.50;5027844;28;20354;-76
2022/03/18 00:39:08;;;;;;;104.03;61.95;;;;;;;10.34;100.00;101018.66;5028224;28;20118;-76
2022/03/18 00:41:34;;;;;;;110.05;62.22;;;;;;;10.35;100.00;101016.88;5018912;28;20041;-77
2022/03/18 00:44:00;;;;;;;106.28;61.92;;;;;;;10.35;100.00;101019.50;5027890;28;20048;-75
2022/03/18 00:46:25;;;;;;;99.15;61.35;;;;;;;10.36;100.00;101015.94;5018704;28;20045;-74
2022/03/18 00:54:20;;;;;;;103.97;63.08;;;;;;;10.39;100.00;101015.69;5032209;28;20053;-76
2022/03/18 00:56:45;;;;;;;104.50;62.08;;;;;;;10.40;100.00;101025.31;5032071;28;20038;-76
2022/03/18 00:59:11;;;;;;;99.53;61.67;;;;;;;10.39;100.00;101020.97;5032007;28;20088;-75
2022/03/18 01:01:37;;;;;;;109.72;63.22;;;;;;;10.36;100.00;101021.19;5021917;28;20080;-76
2022/03/18 01:04:02;;;;;;;101.75;60.45;;;;;;;10.34;100.00;101018.66;5032000;28;20086;-76
2022/03/18 01:06:28;;;;;;;102.25;63.42;;;;;;;10.37;100.00;101017.63;5032393;28;20463;-76
2022/03/18 01:08:54;;;;;;;107.90;61.55;;;;;;;10.37;100.00;101030.81;5028020;28;20048;-75
2022/03/18 01:11:19;;;;;;;106.53;63.03;;;;;;;10.38;100.00;101016.63;5031694;28;20033;-77
2022/03/18 01:13:45;;;;;;;102.63;61.38;;;;;;;10.40;100.00;101018.25;5031985;28;20033;-77
2022/03/18 01:16:10;;;;;;;104.25;62.65;;;;;;;10.41;100.00;101011.16;5032178;28;20037;-76
2022/03/18 01:18:36;;;;;;;105.05;61.65;;;;;;;10.43;100.00;101020.66;5032092;28;20044;-75
2022/03/18 01:21:02;;;;;;;106.43;61.70;;;;;;;10.38;100.00;101019.28;5032324;28;20444;-76
2022/03/18 01:23:28;;;;;;;105.05;61.03;;;;;;;10.35;100.00;101019.50;5032921;28;20474;-77
2022/03/18 01:25:55;;;;;;;100.00;61.55;;;;;;;10.31;100.00;101015.41;5027644;28;20477;-76
2022/03/18 01:28:20;;;;;;;107.40;63.20;;;;;;;10.26;100.00;101016.53;5032263;28;20029;-75
2022/03/18 01:30:45;;;;;;;100.18;60.35;;;;;;;10.20;100.00;101010.84;5031632;28;20562;-76
2022/03/18 01:33:11;;;;;;;107.63;64.22;;;;;;;10.15;100.00;101012.91;5032125;28;20488;-77
2022/03/18 01:35:37;;;;;;;108.13;63.58;;;;;;;10.15;100.00;101010.28;5031760;28;20444;-75
2022/03/18 01:38:03;;;;;;;107.15;61.42;;;;;;;10.15;100.00;101008.50;5031601;28;20059;-76
2022/03/18 01:40:28;;;;;;;103.88;61.40;;;;;;;10.13;100.00;101014.84;5031692;28;20443;-76
2022/03/18 01:42:54;;;;;;;106.78;64.70;;;;;;;10.15;100.00;101003.22;5031593;28;20032;-76
2022/03/18 01:45:19;;;;;;;106.82;63.67;;;;;;;10.16;100.00;101010.22;5031776;28;20105;-77
2022/03/18 01:47:45;;;;;;;107.82;64.13;;;;;;;10.17;100.00;101005.78;5031402;28;20128;-77
2022/03/18 01:50:12;;;;;;;117.00;65.65;;;;;;;10.16;100.00;101001.41;5031497;28;20436;-76
2022/03/18 01:52:38;;;;;;;100.55;62.17;;;;;;;10.13;100.00;100997.19;5031227;28;20478;-77
2022/03/18 01:55:04;;;;;;;108.53;65.63;;;;;;;10.08;100.00;101004.56;5031748;28;20108;-76
2022/03/18 01:57:30;;;;;;;107.40;64.85;;;;;;;10.03;100.00;101003.19;5030521;28;20073;-77
2022/03/18 01:59:56;;;;;;;108.53;64.70;;;;;;;9.99;100.00;100997.31;5029339;28;20033;-77
2022/03/18 02:02:22;;;;;;;106.25;65.65;;;;;;;10.01;100.00;100994.56;5018936;28;20095;-78
2022/03/18 02:04:48;;;;;;;106.07;64.03;;;;;;;10.02;100.00;101002.34;5030708;28;20104;-77
2022/03/18 02:07:14;;;;;;;107.00;62.95;;;;;;;10.02;100.00;100997.06;5032161;28;20136;-76
2022/03/18 02:09:40;;;;;;;109.03;63.13;;;;;;;10.05;100.00;101002.16;5031218;28;20444;-76
2022/03/18 02:12:07;;;;;;;111.90;64.70;;;;;;;10.06;100.00;101001.22;5031522;28;20034;-77
2022/03/18 02:14:38;;;;;;;105.55;62.95;;;;;;;10.07;100.00;100999.44;5031174;28;20358;-77
2022/03/18 02:17:05;;;;;;;107.60;64.90;;;;;;;10.07;100.00;100994.97;5031177;28;20041;-77
2022/03/18 02:19:31;;;;;;;110.78;64.70;;;;;;;10.04;100.00;101000.47;5031114;28;20423;-77
2022/03/18 02:21:57;;;;;;;116.88;67.70;;;;;;;10.05;100.00;100996.03;5030714;28;20036;-75
2022/03/18 02:24:24;;;;;;;119.88;68.95;;;;;;;10.03;100.00;100993.50;5030921;28;20570;-77
2022/03/18 02:26:54;;;;;;;109.57;65.22;;;;;;;10.01;100.00;101000.69;5031103;28;20033;-77
2022/03/18 02:29:22;;;;;;;107.85;64.00;;;;;;;10.02;100.00;100997.06;5030927;28;20036;-76
2022/03/18 02:31:48;;;;;;;110.80;65.10;;;;;;;10.02;100.00;100997.06;5030713;28;20088;-77
2022/03/18 02:34:15;;;;;;;110.55;64.57;;;;;;;10.00;100.00;101004.25;5030809;28;20128;-76
2022/03/18 02:36:41;;;;;;;111.45;66.88;;;;;;;9.96;100.00;101002.75;5030034;28;20030;-77
2022/03/18 02:39:07;;;;;;;116.78;67.88;;;;;;;9.93;100.00;100996.88;5021126;28;20148;-76
2022/03/18 02:41:33;;;;;;;111.95;66.30;;;;;;;9.92;100.00;101001.28;5030478;28;20422;-75
2022/03/18 02:43:59;;;;;;;110.80;65.45;;;;;;;9.91;100.00;101002.22;5030433;28;20042;-75
2022/03/18 02:46:26;;;;;;;110.97;66.10;;;;;;;9.90;100.00;100997.91;5021059;28;20025;-75
2022/03/18 02:48:51;;;;;;;112.05;65.40;;;;;;;9.85;100.00;101000.84;5020423;28;20061;-77
2022/03/18 02:51:18;;;;;;;116.88;68.38;;;;;;;9.88;100.00;100997.19;5030290;28;20053;-76
2022/03/18 02:53:43;;;;;;;110.93;67.50;;;;;;;9.91;100.00;101004.03;5030119;28;20482;-77
2022/03/18 02:56:09;;;;;;;118.10;67.97;;;;;;;9.87;100.00;100998.13;5030012;28;20155;-77
2022/03/18 02:58:35;;;;;;;110.40;64.82;;;;;;;9.85;100.00;101002.66;5030460;28;20053;-77
2022/03/18 03:01:02;;;;;;;114.38;66.32;;;;;;;9.85;100.00;101000.00;5030167;28;20041;-77
2022/03/18 03:03:28;;;;;;;114.35;67.85;;;;;;;9.88;100.00;101009.53;5030341;28;20037;-78
2022/03/18 03:08:39;;;;;;;111.00;67.07;;;;;;;9.84;100.00;101003.59;5016203;28;20034;-77
2022/03/18 03:11:06;;;;;;;113.68;67.45;;;;;;;9.86;100.00;101001.69;5030001;28;20052;-78
2022/03/18 03:13:32;;;;;;;116.30;67.45;;;;;;;9.87;100.00;100998.13;5030279;28;20044;-76
2022/03/18 03:15:59;;;;;;;118.82;66.88;;;;;;;9.84;100.00;101000.94;5029557;28;20033;-77
2022/03/18 03:18:25;;;;;;;112.15;66.63;;;;;;;9.85;100.00;101003.50;5026271;28;20120;-76
2022/03/18 03:20:50;;;;;;;113.30;65.95;;;;;;;9.87;100.00;101003.41;5029653;28;20120;-75
2022/03/18 03:23:16;;;;;;;110.97;64.60;;;;;;;9.86;100.00;101005.19;5030292;28;20472;-76
2022/03/18 03:25:43;;;;;;;113.13;66.38;;;;;;;9.85;100.00;101005.28;5029371;28;20045;-77
2022/03/18 03:28:08;;;;;;;109.80;66.32;;;;;;;9.85;100.00;101002.66;5020267;28;20030;-77
2022/03/18 03:30:34;;;;;;;110.00;66.80;;;;;;;9.82;100.00;100994.97;5029844;28;20122;-77
2022/03/18 03:33:00;;;;;;;113.53;65.68;;;;;;;9.82;100.00;101002.88;5029397;28;20037;-76
2022/03/18 03:35:26;;;;;;;112.75;67.65;;;;;;;9.79;100.00;100996.00;5019952;28;20037;-76
2022/03/18 03:37:51;;;;;;;109.70;65.03;;;;;;;9.75;100.00;100998.94;5029039;28;20508;-76
2022/03/18 03:40:18;;;;;;;106.15;64.47;;;;;;;9.76;100.00;101005.91;5029173;28;20033;-75
2022/03/18 03:42:45;;;;;;;112.93;67.25;;;;;;;9.77;100.00;101002.34;5029119;28;20076;-75
2022/03/18 03:45:12;;;;;;;116.68;68.50;;;;;;;9.72;100.00;101007.06;5029681;28;20048;-76
2022/03/18 03:47:38;;;;;;;115.75;68.13;;;;;;;9.70;100.00;101004.53;5029240;28;20029;-75
2022/03/18 03:50:05;;;;;;;116.88;66.13;;;;;;;9.70;100.00;101011.59;5029652;28;20025;-77
2022/03/18 03:52:30;;;;;;;113.70;66.72;;;;;;;9.68;100.00;101013.47;5029016;28;20064;-75
2022/03/18 03:54:56;;;;;;;110.30;64.43;;;;;;;9.68;100.00;101016.09;5016272;28;20457;-76
2022/03/18 03:57:22;;;;;;;114.22;67.05;;;;;;;9.68;100.00;101013.47;5029285;28;20048;-76
2022/03/18 03:59:47;;;;;;;115.07;67.32;;;;;;;9.63;100.00;101018.22;5028871;28;20025;-77
2022/03/18 04:02:13;;;;;;;114.75;68.30;;;;;;;9.62;100.00;101009.47;5029164;28;20040;-78
2022/03/18 04:04:39;;;;;;;114.53;66.53;;;;;;;9.67;100.00;101017.06;5028995;28;20148;-76
2022/03/18 04:07:05;;;;;;;112.88;68.07;;;;;;;9.68;100.00;101018.75;5019476;28;20042;-76
2022/03/18 04:09:30;;;;;;;116.55;67.35;;;;;;;9.67;100.00;101024.97;5028956;28;20091;-76
2022/03/18 04:11:56;;;;;;;117.60;68.95;;;;;;;9.58;100.00;101028.22;5028818;28;20312;-78
2022/03/18 04:14:21;;;;;;;118.18;67.55;;;;;;;9.50;100.00;101022.59;5029300;28;20562;-76
2022/03/18 04:16:47;;;;;;;113.90;66.32;;;;;;;9.50;100.00;101030.50;5028827;28;20422;-76
2022/03/18 04:19:13;;;;;;;118.90;67.47;;;;;;;9.51;100.00;101021.66;5029191;28;20068;-75
2022/03/18 04:21:38;;;;;;;113.88;65.90;;;;;;;9.52;100.00;101025.97;5028769;28;20104;-75
2022/03/18 04:24:04;;;;;;;117.22;69.28;;;;;;;9.53;100.00;101031.16;5028796;28;20031;-76
2022/03/18 04:26:30;;;;;;;112.95;67.00;;;;;;;9.54;100.00;101039.91;5029962;28;20033;-76
2022/03/18 04:28:55;;;;;;;114.90;66.15;;;;;;;9.53;100.00;101040.84;5032729;28;20497;-76
2022/03/18 04:31:22;;;;;;;113.85;68.03;;;;;;;9.55;100.00;101039.78;5033219;28;20032;-76
2022/03/18 04:33:48;;;;;;;118.15;68.65;;;;;;;9.53;100.00;101038.22;5032901;28;20095;-74
2022/03/18 04:36:14;;;;;;;116.60;69.05;;;;;;;9.52;100.00;101044.44;5033220;28;20041;-76
2022/03/18 04:38:39;;;;;;;111.55;66.55;;;;;;;9.52;100.00;101047.06;5032561;28;20091;-78
2022/03/18 04:41:04;;;;;;;117.22;67.07;;;;;;;9.50;100.00;101051.56;5033565;28;20083;-78
2022/03/18 04:43:30;;;;;;;114.53;66.85;;;;;;;9.49;100.00;101048.09;5033375;28;20034;-77
2022/03/18 04:45:55;;;;;;;111.57;65.57;;;;;;;9.49;100.00;101044.59;5032340;28;20125;-76
2022/03/18 04:48:21;;;;;;;118.13;68.15;;;;;;;9.48;100.00;101042.94;5030913;28;20029;-76
2022/03/18 04:50:46;;;;;;;113.13;65.93;;;;;;;9.43;100.00;101046.69;5029847;28;20068;-76
2022/03/18 04:53:12;;;;;;;120.97;67.88;;;;;;;9.45;100.00;101044.81;5030162;28;20041;-77
2022/03/18 04:55:37;;;;;;;118.47;67.63;;;;;;;9.45;100.00;101044.81;5031470;28;20183;-77
2022/03/18 04:58:03;;;;;;;110.97;64.75;;;;;;;9.45;100.00;101046.59;5023081;28;20040;-75
2022/03/18 05:00:28;;;;;;;113.20;69.10;;;;;;;9.43;100.00;101046.69;5032631;28;20035;-75
2022/03/18 05:02:55;;;;;;;110.78;64.53;;;;;;;9.45;100.00;101055.34;5028378;28;20029;-76
2022/03/18 05:05:21;;;;;;;111.68;66.30;;;;;;;9.40;100.00;101046.91;5032590;28;20051;-76
2022/03/18 05:07:49;;;;;;;112.85;67.82;;;;;;;9.39;100.00;101058.38;5032284;28;20551;-76
2022/03/18 05:10:15;;;;;;;107.68;64.32;;;;;;;9.39;100.00;101047.00;5032082;28;20041;-76
2022/03/18 05:12:40;;;;;;;110.78;68.63;;;;;;;9.34;100.00;101055.22;5032175;28;20479;-78
2022/03/18 05:15:10;;;;;;;111.97;65.35;;;;;;;9.31;100.00;101059.81;5032568;28;20121;-77
2022/03/18 05:17:39;;;;;;;110.13;64.88;;;;;;;9.26;100.00;101054.00;5031968;28;20116;-77
2022/03/18 05:20:06;;;;;;;113.95;66.38;;;;;;;9.23;100.00;101060.31;5032384;28;20034;-76
2022/03/18 05:22:32;;;;;;;111.13;65.93;;;;;;;9.24;100.00;101062.03;5032541;28;20389;-76
2022/03/18 05:24:59;;;;;;;107.75;64.00;;;;;;;9.24;100.00;101067.28;5031506;28;20079;-76
2022/03/18 05:27:25;;;;;;;114.30;66.68;;;;;;;9.24;100.00;101072.56;5028285;28;20370;-76
2022/03/18 05:29:51;;;;;;;120.95;67.10;;;;;;;9.24;100.00;101069.06;5031576;28;20620;-76
2022/03/18 05:32:18;;;;;;;119.95;67.25;;;;;;;9.24;100.00;101069.91;5022114;28;20479;-77
2022/03/18 05:34:43;;;;;;;112.38;65.68;;;;;;;9.23;100.00;101078.75;5031522;28;20032;-76
2022/03/18 05:37:09;;;;;;;104.60;62.78;;;;;;;9.21;100.00;101078.00;5030789;28;20057;-76
2022/03/18 05:39:36;;;;;;;109.55;64.18;;;;;;;9.19;100.00;101085.13;5044991;22;20084;-77
2022/03/18 05:42:01;;;;;;;116.32;67.43;;;;;;;9.19;100.00;101082.50;5034067;28;20440;-77
2022/03/18 05:44:27;;;;;;;114.57;66.15;;;;;;;9.20;100.00;101086.84;5033317;28;20029;-77
2022/03/18 05:46:52;;;;;;;112.63;64.93;;;;;;;9.21;100.00;101083.28;5032838;28;20039;-77
2022/03/18 05:49:18;;;;;;;114.00;65.50;;;;;;;9.21;100.00;101083.28;5033120;28;20474;-77
2022/03/18 05:51:44;;;;;;;105.68;60.58;;;;;;;9.21;100.00;101093.81;5032240;28;20030;-78
2022/03/18 05:54:10;;;;;;;105.88;63.47;;;;;;;9.17;100.00;101089.69;5032642;28;20125;-77
2022/03/18 05:56:53;;;;;;;113.32;65.43;;;;;;;9.11;100.00;101094.47;5032637;28;20037;-78
2022/03/18 05:59:19;;;;;;;107.18;63.28;;;;;;;9.07;100.00;101096.47;5024122;28;20117;-76
2022/03/18 06:01:46;;;;;;;111.78;64.85;;;;;;;9.03;100.00;101101.06;5032243;28;20040;-78
2022/03/18 06:04:14;;;;;;;109.35;62.45;;;;;;;9.02;100.00;101099.38;5032669;28;20132;-77
2022/03/18 06:06:41;;;;;;;112.53;64.43;;;;;;;9.01;100.00;101102.13;5023177;28;20444;-79
2022/03/18 06:11:53;;;;;;;110.40;63.95;;;;;;;9.02;100.00;101098.53;5022774;28;20400;-79
2022/03/18 06:14:25;;;;;;;113.70;65.95;;;;;;;9.03;100.00;101105.47;5032573;28;20055;-78
2022/03/18 06:16:53;;;;;;;113.07;66.35;;;;;;;9.01;100.00;101102.13;5031343;28;20049;-78
2022/03/18 06:19:20;;;;;;;121.88;67.07;;;;;;;8.99;100.00;101114.53;5032432;28;20038;-77
2022/03/18 06:21:46;;;;;;;119.45;66.03;;;;;;;8.98;100.00;101115.47;5032003;28;20021;-78
2022/03/18 06:24:12;;;;;;;116.07;64.83;;;;;;;9.00;100.00;101116.22;4684286;28;10000617;-78
2022/03/18 06:26:38;;;;;;;115.38;67.47;;;;;;;9.02;100.00;101116.94;5030654;28;20048;-77
2022/03/18 06:29:05;;;;;;;114.65;66.15;;;;;;;9.03;100.00;101121.28;5030687;28;20041;-80
2022/03/18 06:31:31;;;;;;;109.07;65.75;;;;;;;9.06;100.00;101123.75;5031931;28;20037;-78
2022/03/18 06:33:58;;;;;;;108.25;63.92;;;;;;;9.08;100.00;101128.88;5023008;28;20616;-80
2022/03/18 06:36:23;;;;;;;106.80;64.68;;;;;;;9.10;100.00;101127.88;5033960;28;20075;-80
2022/03/18 06:38:49;;;;;;;112.65;65.90;;;;;;;9.12;100.00;101128.63;5033075;28;20037;-79
2022/03/18 06:41:16;;;;;;;113.85;64.97;;;;;;;9.15;100.00;101136.31;5031229;28;20052;-80
2022/03/18 06:43:42;;;;;;;109.28;64.03;;;;;;;9.18;100.00;101136.16;5036524;28;20122;-78
2022/03/18 06:46:08;;;;;;;104.88;61.88;;;;;;;9.19;100.00;101135.19;4336425;28;10021538;-79
2022/03/18 06:48:34;;;;;;;114.68;64.47;;;;;;;9.23;100.00;101149.88;5039279;28;20026;-79
2022/03/18 06:51:00;;;;;;;103.88;61.63;;;;;;;9.29;100.00;101144.22;5019129;28;20032;-78
2022/03/18 06:53:26;;;;;;;110.65;67.03;;;;;;;9.30;100.00;101138.03;5028853;28;20030;-78
2022/03/18 06:55:52;;;;;;;116.78;64.93;;;;;;;9.29;100.00;101149.50;5032400;28;20032;-80
2022/03/18 06:58:18;;;;;;;115.45;65.38;;;;;;;9.26;100.00;101143.56;5031975;28;20033;-79
2022/03/18 07:00:43;;;;;;;111.32;65.20;;;;;;;9.24;100.00;101146.31;5032042;28;20055;-78
2022/03/18 07:03:09;;;;;;;119.25;68.43;;;;;;;9.21;100.00;101146.47;5032311;28;20033;-79
2022/03/18 07:05:34;;;;;;;112.30;64.22;;;;;;;9.21;100.00;101148.25;5024368;28;20029;-77
2022/03/18 07:08:00;;;;;;;112.85;66.15;;;;;;;9.21;100.00;101151.75;5031372;28;20045;-78
2022/03/18 07:10:26;;;;;;;117.20;66.97;;;;;;;9.19;100.00;101156.25;5031634;28;20035;-79
2022/03/18 07:12:51;;;;;;;123.28;67.72;;;;;;;9.15;100.00;101152.13;5022018;28;20366;-79
2022/03/18 07:15:17;;;;;;;113.70;65.40;;;;;;;9.13;100.00;101159.25;5031730;28;20366;-78
2022/03/18 07:18:02;;;;;;;116.25;66.03;;;;;;;9.11;100.00;101165.59;5023846;28;20560;-78
2022/03/18 07:20:30;;;;;;;118.47;67.70;;;;;;;9.14;100.00;101160.97;5028169;28;20104;-78
2022/03/18 07:23:06;;;;;;;117.22;66.85;;;;;;;9.23;100.00;101163.03;5027643;28;20108;-78
2022/03/18 07:25:33;;;;;;;115.40;65.18;;;;;;;9.34;100.00;101168.50;5028350;28;20060;-77
2022/03/18 07:27:59;;;;;;;113.22;63.95;;;;;;;9.47;100.00;101167.72;5031552;28;20033;-77
2022/03/18 07:30:24;;;;;;;115.00;65.15;;;;;;;9.52;100.00;101166.50;5022199;28;20041;-77
2022/03/18 07:32:50;;;;;;;110.10;65.97;;;;;;;9.48;100.00;101172.91;5021309;28;20529;-79
2022/03/18 07:35:16;;;;;;;117.68;66.82;;;;;;;9.49;100.00;101168.44;5021674;28;20045;-78
2022/03/18 07:37:42;;;;;;;115.85;68.78;;;;;;;9.43;100.00;101170.53;5031291;28;20056;-77
2022/03/18 07:40:14;;;;;;;122.82;69.07;;;;;;;9.45;100.00;101175.72;5032195;28;20151;-77
2022/03/18 07:42:51;;;;;;;118.47;66.20;;;;;;;9.48;100.00;101174.69;5034861;28;20531;-78
2022/03/18 07:45:27;;;;;;;115.90;66.55;;;;;;;9.56;100.00;101177.66;5043894;28;20107;-78
2022/03/18 07:47:58;;;;;;;121.93;68.93;;;;;;;9.64;100.00;101176.25;5047353;28;20034;-78
2022/03/18 07:50:26;;;;;;;116.72;67.35;;;;;;;9.73;100.00;101185.34;5046466;28;20025;-78
2022/03/18 07:52:54;;;;;;;122.47;69.20;;;;;;;9.76;100.00;101179.91;5047973;28;20033;-78
2022/03/18 07:55:21;;;;;;;116.60;69.18;;;;;;;9.82;100.00;101190.06;5036758;28;20041;-79
2022/03/18 07:57:47;;;;;;;117.88;69.80;;;;;;;9.88;100.00;101189.66;5031238;28;20040;-79
2022/03/18 08:00:14;;;;;;;118.75;68.53;;;;;;;9.96;100.00;101192.63;5031904;28;20068;-79
2022/03/18 08:02:44;;;;;;;123.47;69.32;;;;;;;10.04;100.00;101195.63;5031275;28;20377;-78
2022/03/18 08:05:10;;;;;;;118.63;69.03;;;;;;;10.19;100.00;101199.94;5031351;28;20038;-78
2022/03/18 08:07:36;;;;;;;116.15;68.07;;;;;;;10.31;100.00;101197.47;5030950;28;20112;-78
2022/03/18 08:10:03;;;;;;;116.07;67.90;;;;;;;10.42;100.00;101200.22;5031254;28;20100;-79
2022/03/18 08:12:29;;;;;;;117.43;67.68;;;;;;;10.51;100.00;101199.59;5031393;28;20033;-79
2022/03/18 08:14:57;;;;;;;117.50;69.15;;;;;;;10.60;100.00;101201.66;5026640;28;20831;-79
2022/03/18 08:17:23;;;;;;;115.30;67.72;;;;;;;10.71;100.00;101201.75;5030983;28;20064;-79
2022/03/18 08:19:50;;;;;;;116.22;67.32;;;;;;;10.79;100.00;101207.34;5030082;28;20034;-79
2022/03/18 08:22:16;;;;;;;109.53;64.95;;;;;;;10.83;100.00;101211.50;5030295;28;20056;-79
2022/03/18 08:24:42;;;;;;;112.45;65.53;;;;;;;10.92;100.00;101204.72;5029941;28;20025;-79
2022/03/18 08:27:07;;;;;;;111.47;66.13;;;;;;;11.02;100.00;101206.63;5030437;28;20363;-79
2022/03/18 08:29:32;;;;;;;115.80;65.63;;;;;;;11.11;100.00;101209.59;5030202;28;20402;-79
2022/03/18 08:31:58;;;;;;;108.60;65.63;;;;;;;11.17;100.00;101206.53;5029780;28;20128;-79
2022/03/18 08:34:23;;;;;;;112.30;63.80;;;;;;;11.24;100.00;101216.56;5024762;28;20034;-79
2022/03/18 08:36:49;;;;;;;111.35;64.88;;;;;;;11.28;100.00;101209.25;5029365;28;20053;-79
2022/03/18 08:39:15;;;;;;;105.03;62.38;;;;;;;11.32;100.00;101206.28;5029313;28;20049;-79
2022/03/18 08:41:41;;;;;;;106.70;62.05;;;;;;;11.39;100.00;101210.22;5029456;28;20041;-78
2022/03/18 08:44:06;;;;;;;108.63;62.60;;;;;;;11.47;100.00;101212.31;5029663;28;20018;-78
2022/03/18 08:46:34;;;;;;;115.25;63.38;;;;;;;11.55;100.00;101209.97;5030185;28;20026;-78
2022/03/18 08:48:59;;;;;;;107.25;63.90;;;;;;;11.65;100.00;101213.66;5020446;28;20053;-78
2022/03/18 08:51:25;;;;;;;107.20;62.33;;;;;;;11.73;100.00;101224.56;5025548;28;20049;-78
2022/03/18 08:53:50;;;;;;;104.13;61.30;;;;;;;11.79;100.00;101229.41;5020441;28;20038;-79
2022/03/18 08:56:16;;;;;;;99.45;61.08;;;;;;;11.85;100.00;101223.66;5019804;28;20478;-79
2022/03/18 08:58:41;;;;;;;102.88;60.90;;;;;;;11.92;100.00;101225.88;5029672;28;20057;-77
2022/03/18 09:01:07;;;;;;;104.38;61.83;;;;;;;11.98;100.00;101222.78;5020168;28;20044;-77
2022/03/18 09:03:32;;;;;;;98.75;57.75;;;;;;;12.04;100.00;101225.00;5029944;28;20109;-79
2022/03/18 09:05:58;;;;;;;110.85;63.15;;;;;;;12.09;100.00;101225.50;5029199;28;20427;-78
2022/03/18 09:08:23;;;;;;;104.32;61.38;;;;;;;12.13;100.00;101232.28;5030032;28;20888;-77
2022/03/18 09:10:49;;;;;;;105.78;61.53;;;;;;;12.18;100.00;101230.13;5029285;28;20428;-77
2022/03/18 09:13:15;;;;;;;96.40;57.92;;;;;;;12.23;100.00;101230.63;5024370;28;20474;-79
2022/03/18 09:15:41;;;;;;;99.93;59.45;;;;;;;12.26;100.00;101225.94;5033602;28;20041;-77
2022/03/18 09:18:06;;;;;;;99.20;57.45;;;;;;;12.34;100.00;101230.69;5022467;28;20069;-76
2022/03/18 09:20:32;;;;;;;95.28;58.60;;;;;;;12.39;100.00;101231.19;5033158;28;20055;-76
2022/03/18 09:22:57;;;;;;;92.03;56.78;;;;;;;12.45;100.00;101233.38;5032332;28;20465;-75
2022/03/18 09:25:23;;;;;;;85.20;54.05;;;;;;;12.46;100.00;101237.72;5032056;28;20116;-78
2022/03/18 09:27:51;;;;;;;94.47;54.40;;;;;;;12.48;100.00;101243.75;5014268;28;20612;-78
2022/03/18 09:30:17;;;;;;;84.93;51.97;;;;;;;12.47;98.82;101242.06;5032089;28;20453;-76
2022/03/18 09:32:43;;;;;;;92.80;52.10;;;;;;;12.44;98.01;101247.56;5031620;28;20106;-78
2022/03/18 09:35:14;;;;;;;88.07;51.33;;;;;;;12.47;97.24;101246.50;5031819;28;20112;-76
2022/03/18 09:37:40;;;;;;;86.30;52.22;;;;;;;12.49;97.12;101241.94;5031747;28;20052;-76
2022/03/18 09:40:08;;;;;;;89.30;52.67;;;;;;;12.51;96.90;101240.88;5031513;28;20045;-77
2022/03/18 09:42:51;;;;;;;84.97;52.80;;;;;;;12.52;96.91;101245.22;5014224;28;20067;-78
2022/03/18 09:45:19;;;;;;;86.90;52.50;;;;;;;12.54;97.25;101251.25;5031304;28;20029;-78
2022/03/18 09:47:45;;;;;;;80.57;51.10;;;;;;;12.57;97.10;101248.34;5030527;28;20129;-79
2022/03/18 09:50:11;;;;;;;85.35;52.35;;;;;;;12.64;97.17;101252.25;5031505;28;20124;-77
2022/03/18 09:52:37;;;;;;;88.90;50.72;;;;;;;12.67;95.56;101254.66;5031213;28;20116;-78
2022/03/18 09:55:03;;;;;;;90.25;50.15;;;;;;;12.70;95.42;101251.78;5031344;28;20045;-77
2022/03/18 09:57:29;;;;;;;79.13;49.05;;;;;;;12.70;94.13;101246.47;5032263;28;20488;-77
2022/03/18 09:59:54;;;;;;;81.60;49.67;;;;;;;12.76;94.48;101257.56;4334491;28;10000733;-79
2022/03/18 10:02:33;;;;;;;78.32;48.40;;;;;;;12.84;94.42;101249.91;5030025;28;20041;-78
2022/03/18 10:05:00;;;;;;;80.07;47.35;;;;;;;12.91;93.80;101251.09;4331385;28;10000801;-77
2022/03/18 10:07:26;;;;;;;73.38;45.17;;;;;;;12.94;92.59;101254.38;5031919;28;20117;-76
2022/03/18 10:10:04;;;;;;;81.57;44.67;;;;;;;13.00;90.57;101253.06;5030097;28;20048;-76
2022/03/18 10:12:38;;;;;;;57.15;37.40;;;;;;;12.98;83.83;101258.47;5030826;28;20450;-78
2022/03/18 10:15:14;;;;;;;51.35;35.83;;;;;;;12.93;81.77;101254.50;5032210;28;20503;-80
2022/03/18 10:17:42;;;;;;;52.80;34.58;;;;;;;12.96;82.13;101249.78;5031920;28;20039;-79
2022/03/18 10:20:29;;;;;;;57.85;36.13;;;;;;;12.97;78.83;101253.28;5031816;28;20445;-77
2022/03/18 10:23:03;;;;;;;51.97;34.20;;;;;;;13.05;80.44;101256.22;5022179;28;20034;-79
2022/03/18 10:25:39;;;;;;;48.50;33.90;;;;;;;13.10;78.74;101257.53;5028027;28;20029;-78
2022/03/18 10:28:06;;;;;;;52.83;35.03;;;;;;;13.15;78.42;101259.88;5029129;28;20393;-77
2022/03/18 10:30:32;;;;;;;51.70;35.15;;;;;;;13.15;77.36;101251.91;5031787;28;20032;-76
2022/03/18 10:32:58;;;;;;;51.53;34.05;;;;;;;13.21;77.47;101263.84;5029741;28;20092;-75
2022/03/18 10:38:32;;;;;;;48.28;31.00;;;;;;;13.22;74.76;101266.38;5027520;28;20034;-76
2022/03/18 10:40:59;;;;;;;47.70;31.55;;;;;;;13.28;75.36;101271.22;5025535;28;20155;-77
2022/03/18 10:43:26;;;;;;;43.92;30.13;;;;;;;13.31;73.60;101270.97;5031206;28;20140;-78
2022/03/18 10:46:03;;;;;;;42.20;28.60;;;;;;;13.35;73.31;101261.84;5031240;28;20041;-77
2022/03/18 10:48:30;;;;;;;40.28;29.38;;;;;;;13.40;73.20;101270.28;5024827;28;20033;-74
2022/03/18 10:51:07;;;;;;;46.40;29.80;;;;;;;13.46;71.96;101261.84;4330073;28;10000725;-75
2022/03/18 10:53:34;;;;;;;40.60;27.58;;;;;;;13.48;71.43;101265.22;5013676;28;20033;-75
2022/03/18 10:56:02;;;;;;;39.33;28.10;;;;;;;13.50;70.50;101265.94;5029674;28;20457;-75
2022/03/18 10:58:31;;;;;;;38.20;27.98;;;;;;;13.58;71.08;101260.03;5027515;28;20187;-76
2022/03/18 11:01:00;;;;;;;41.13;27.92;;;;;;;13.65;71.26;101271.00;5026239;28;20052;-76
2022/03/18 11:03:26;;;;;;;39.72;28.27;;;;;;;13.67;71.37;101271.72;5029714;28;20026;-76
2022/03/18 11:05:52;;;;;;;40.60;27.40;;;;;;;13.69;71.18;101267.13;5012475;28;20107;-78
2022/03/18 11:08:22;;;;;;;39.65;28.75;;;;;;;13.71;71.08;101267.88;5031685;28;20037;-77
2022/03/18 11:11:15;;;;;;;37.67;27.08;;;;;;;13.67;70.43;101266.41;5031148;28;20033;-77
2022/03/18 11:14:04;;;;;;;36.08;27.35;;;;;;;13.59;68.79;101277.63;5028243;28;20366;-75